Time;durP1;ratioP1;P1;durP2;ratioP2;P2;SDS_P1;SDS_P2;PMS_P1;PMS_P2;Temp;Humidity;BMP_temperature;BMP_pressure;BME280_temperature;BME280_humidity;BME280_pressure;Samples;Min_cycle;Max_cycle;Signal;HPM_P1;HPM_P2
2023/02/02 00:01:44;;;;;;;101.05;97.15;;;10.10;96.30;;;;;;5048694;28;20115;-80
2023/02/02 00:04:18;;;;;;;103.07;99.07;;;10.10;96.30;;;;;;5047326;28;20409;-80
2023/02/02 00:06:44;;;;;;;105.68;101.57;;;10.10;96.20;;;;;;5047255;28;20032;-80
2023/02/02 00:09:11;;;;;;;;;;;10.10;96.20;;;;;;5047742;28;20040;-80
2023/02/02 00:11:37;;;;;;;106.93;102.82;;;10.10;96.30;;;;;;5048445;28;19919;-80
2023/02/02 00:14:03;;;;;;;105.45;101.38;;;10.10;96.20;;;;;;5014068;28;20041;-80
2023/02/02 00:16:29;;;;;;;104.93;100.88;;;10.10;96.20;;;;;;5047133;28;20039;-80
2023/02/02 00:18:59;;;;;;;104.53;100.50;;;10.10;96.30;;;;;;5048542;28;20381;-80
2023/02/02 00:21:25;;;;;;;106.60;102.50;;;10.20;96.30;;;;;;5046807;28;20481;-80
2023/02/02 00:23:52;;;;;;;106.90;102.80;;;10.20;96.30;;;;;;5046829;28;20025;-80
2023/02/02 00:26:18;;;;;;;106.45;102.35;;;10.20;96.30;;;;;;5030345;28;20053;-80
2023/02/02 00:28:44;;;;;;;110.45;106.25;;;10.20;96.30;;;;;;5048036;28;20027;-80
2023/02/02 00:31:10;;;;;;;109.70;105.45;;;10.20;96.30;;;;;;5030238;28;20037;-80
2023/02/02 00:33:36;;;;;;;108.53;104.35;;;10.20;96.30;;;;;;5046687;28;20036;-80
2023/02/02 00:36:02;;;;;;;108.20;104.00;;;10.20;96.30;;;;;;5046788;28;20439;-81
2023/02/02 00:38:28;;;;;;;;;;;10.20;96.30;;;;;;5046892;28;20033;-80
2023/02/02 00:40:54;;;;;;;105.13;101.13;;;10.30;96.30;;;;;;5047866;28;19920;-80
2023/02/02 00:43:20;;;;;;;109.68;105.47;;;10.30;96.30;;;;;;5030284;28;20025;-81
2023/02/02 00:45:47;;;;;;;106.40;102.28;;;10.30;96.30;;;;;;5030097;28;20107;-80
2023/02/02 00:48:12;;;;;;;106.80;102.70;;;10.30;96.30;;;;;;5030189;28;20029;-80
2023/02/02 00:50:38;;;;;;;108.75;104.55;;;10.30;96.30;;;;;;5013362;28;20508;-80
2023/02/02 00:53:04;;;;;;;110.80;106.50;;;10.30;96.30;;;;;;5029782;28;20029;-80
2023/02/02 00:55:29;;;;;;;109.60;105.35;;;10.30;96.30;;;;;;5029749;28;20035;-80
2023/02/02 00:57:55;;;;;;;112.47;108.07;;;10.30;96.30;;;;;;5029720;28;20194;-80
2023/02/02 01:00:23;;;;;;;111.70;107.35;;;10.30;96.30;;;;;;5029976;28;20033;-80
2023/02/02 01:02:50;;;;;;;109.75;105.45;;;10.30;96.30;;;;;;5029807;28;20036;-80
2023/02/02 01:05:17;;;;;;;111.28;106.95;;;10.30;96.30;;;;;;5046322;28;20025;-80
2023/02/02 01:07:43;;;;;;;110.90;106.57;;;10.30;96.30;;;;;;5046143;28;20025;-80
2023/02/02 01:10:13;;;;;;;110.63;106.30;;;10.30;96.30;;;;;;5047492;28;20021;-80
2023/02/02 01:12:39;;;;;;;110.28;105.97;;;10.30;96.30;;;;;;5046237;28;20493;-80
2023/02/02 01:15:06;;;;;;;112.32;107.93;;;10.40;96.40;;;;;;5045604;28;20021;-80
2023/02/02 01:17:32;;;;;;;109.63;105.35;;;10.40;96.40;;;;;;5013045;28;20025;-80
2023/02/02 01:19:58;;;;;;;;;;;10.30;96.30;;;;;;5047836;28;20037;-80
2023/02/02 01:22:24;;;;;;;113.03;108.63;;;10.40;96.40;;;;;;5045979;28;20266;-80
2023/02/02 01:24:50;;;;;;;111.32;107.03;;;10.40;96.30;;;;;;5047448;28;20029;-80
2023/02/02 01:27:15;;;;;;;113.80;109.40;;;10.30;96.30;;;;;;5046111;28;20064;-80
2023/02/02 01:29:41;;;;;;;114.30;109.82;;;10.40;96.40;;;;;;5015672;28;20040;-80
2023/02/02 01:32:07;;;;;;;115.05;110.55;;;10.40;96.40;;;;;;5030126;28;20069;-80
2023/02/02 01:34:33;;;;;;;116.72;112.15;;;10.40;96.40;;;;;;5029664;28;20029;-80
2023/02/02 01:36:58;;;;;;;115.30;110.80;;;10.40;96.40;;;;;;5046586;28;20091;-80
2023/02/02 01:39:24;;;;;;;117.10;112.50;;;10.30;96.30;;;;;;5046155;28;20045;-80
2023/02/02 01:41:50;;;;;;;119.20;114.50;;;10.30;96.40;;;;;;5029306;28;20128;-80
2023/02/02 01:44:54;;;;;;;117.20;112.60;;;10.40;96.40;;;;;;5029349;28;20058;-80
2023/02/02 01:47:23;;;;;;;116.50;111.95;;;10.40;96.40;;;;;;5045856;28;20025;-80
2023/02/02 01:49:50;;;;;;;120.60;115.88;;;10.40;96.40;;;;;;5046028;28;20151;-80
2023/02/02 01:52:18;;;;;;;120.85;116.15;;;10.40;96.40;;;;;;5045936;28;20397;-80
2023/02/02 01:54:59;;;;;;;122.40;117.60;;;10.40;96.40;;;;;;5047212;28;20055;-80
2023/02/02 01:57:32;;;;;;;121.97;117.18;;;10.30;96.40;;;;;;5045928;28;20462;-80
2023/02/02 02:00:00;;;;;;;120.25;115.55;;;10.40;96.40;;;;;;5047284;28;20125;-80
2023/02/02 02:02:28;;;;;;;125.10;120.18;;;10.40;96.40;;;;;;5046961;28;20056;-80
2023/02/02 02:04:54;;;;;;;130.55;125.35;;;10.40;96.40;;;;;;5047062;28;20393;-80
2023/02/02 02:07:21;;;;;;;131.18;125.97;;;10.40;96.40;;;;;;5045899;28;20025;-80
2023/02/02 02:09:47;;;;;;;132.63;127.38;;;10.40;96.40;;;;;;5045685;28;20076;-80
2023/02/02 02:12:14;;;;;;;137.07;131.57;;;10.40;96.40;;;;;;5045697;28;20040;-78
2023/02/02 02:17:39;;;;;;;140.45;134.75;;;10.40;96.40;;;;;;5047143;28;20047;-78
2023/02/02 02:26:36;;;;;;;157.27;150.73;;;10.30;96.40;;;;;;5047279;28;20055;-78
2023/02/02 02:29:17;;;;;;;161.88;155.13;;;10.30;96.40;;;;;;5048623;28;20025;-78
2023/02/02 02:31:58;;;;;;;161.07;154.38;;;10.30;96.40;;;;;;5048916;28;20112;-78
2023/02/02 02:34:41;;;;;;;166.38;159.48;;;10.30;96.30;;;;;;5050522;28;20028;-78
2023/02/02 02:37:41;;;;;;;162.98;156.18;;;10.20;96.40;;;;;;5048796;28;20029;-77
2023/02/02 02:40:13;;;;;;;161.82;155.05;;;10.20;96.40;;;;;;5050129;28;20021;-77
2023/02/02 02:42:44;;;;;;;161.88;155.02;;;10.20;96.40;;;;;;5050002;28;20534;-77
2023/02/02 02:45:11;;;;;;;163.20;156.40;;;10.20;96.40;;;;;;5049926;28;20103;-77
2023/02/02 02:47:38;;;;;;;161.50;154.75;;;10.30;96.40;;;;;;5049899;28;20021;-78
2023/02/02 02:50:04;;;;;;;160.80;154.05;;;10.20;96.40;;;;;;5031999;28;20116;-78
2023/02/02 02:52:31;;;;;;;161.10;154.30;;;10.20;96.40;;;;;;5049046;28;20028;-78
2023/02/02 02:54:58;;;;;;;156.65;150.05;;;10.30;96.40;;;;;;5048597;28;20077;-78
2023/02/02 02:57:39;;;;;;;161.50;154.68;;;10.30;96.40;;;;;;5048430;28;20110;-77
2023/02/02 03:00:17;;;;;;;157.38;150.70;;;10.30;96.40;;;;;;5050098;28;20060;-77
2023/02/02 03:02:56;;;;;;;155.50;149.00;;;10.30;96.40;;;;;;5048437;28;20127;-77
2023/02/02 03:05:31;;;;;;;156.50;149.95;;;10.30;96.40;;;;;;5049743;28;20436;-78
2023/02/02 03:08:02;;;;;;;153.60;147.20;;;10.30;96.50;;;;;;5048535;28;20496;-78
2023/02/02 03:10:30;;;;;;;156.50;150.00;;;10.40;96.50;;;;;;5049565;28;20101;-78
2023/02/02 03:12:56;;;;;;;157.45;150.85;;;10.40;96.50;;;;;;5049493;28;20048;-78
2023/02/02 03:15:22;;;;;;;150.88;144.55;;;10.40;96.50;;;;;;5049425;28;20393;-78
2023/02/02 03:17:50;;;;;;;148.52;142.23;;;10.40;96.50;;;;;;5031660;28;20033;-78
2023/02/02 03:20:16;;;;;;;152.68;146.20;;;10.50;96.50;;;;;;5049451;28;20037;-78
2023/02/02 03:22:42;;;;;;;152.75;146.35;;;10.50;96.50;;;;;;5049576;28;20028;-78
2023/02/02 03:25:10;;;;;;;155.73;149.20;;;10.50;96.50;;;;;;5047896;28;20126;-78
2023/02/02 03:27:38;;;;;;;153.52;147.10;;;10.50;96.50;;;;;;5048048;28;20435;-78
2023/02/02 03:30:10;;;;;;;152.52;146.13;;;10.50;96.50;;;;;;5047872;28;20024;-78
2023/02/02 03:32:36;;;;;;;155.85;149.35;;;10.50;96.50;;;;;;5047842;28;20033;-78
2023/02/02 03:35:02;;;;;;;145.30;139.20;;;10.50;96.50;;;;;;5049045;28;20552;-78
2023/02/02 03:37:28;;;;;;;147.88;141.70;;;10.50;96.50;;;;;;5049248;28;20477;-78
2023/02/02 03:39:54;;;;;;;144.10;138.10;;;10.60;96.50;;;;;;5047293;28;20063;-78
2023/02/02 03:42:19;;;;;;;153.23;146.93;;;10.60;96.50;;;;;;5031111;28;20029;-78
2023/02/02 03:44:45;;;;;;;145.95;139.85;;;10.60;96.50;;;;;;5047687;28;20445;-78
2023/02/02 03:47:11;;;;;;;141.93;135.98;;;10.50;96.50;;;;;;5031066;28;20029;-78
2023/02/02 03:49:36;;;;;;;138.80;133.02;;;10.60;96.50;;;;;;5048701;28;20059;-78
2023/02/02 03:52:03;;;;;;;134.68;129.07;;;10.60;96.80;;;;;;5030831;28;20033;-78
2023/02/02 03:54:29;;;;;;;134.05;128.55;;;10.60;96.60;;;;;;5047250;28;20039;-78
2023/02/02 03:56:55;;;;;;;126.50;121.35;;;10.60;96.60;;;;;;5047176;28;20390;-78
2023/02/02 03:59:21;;;;;;;126.15;121.05;;;10.70;96.60;;;;;;5047372;28;20074;-78
2023/02/02 04:01:47;;;;;;;123.80;118.78;;;10.70;96.70;;;;;;5030649;28;20134;-78
2023/02/02 04:04:12;;;;;;;123.97;118.97;;;10.70;96.70;;;;;;5047063;28;20048;-78
2023/02/02 04:06:38;;;;;;;124.20;119.20;;;10.80;96.70;;;;;;5047205;28;20107;-78
2023/02/02 04:09:04;;;;;;;119.00;114.20;;;10.80;96.60;;;;;;5030587;28;20542;-78
2023/02/02 04:11:30;;;;;;;116.43;111.75;;;10.80;96.60;;;;;;5048336;28;20032;-78
2023/02/02 04:13:56;;;;;;;121.13;116.22;;;10.80;96.60;;;;;;5047063;28;20060;-78
2023/02/02 04:16:22;;;;;;;122.55;117.65;;;10.80;96.60;;;;;;5048504;28;20489;-78
2023/02/02 04:18:47;;;;;;;120.70;115.80;;;10.90;96.60;;;;;;5030471;28;20029;-78
2023/02/02 04:21:13;;;;;;;121.32;116.43;;;10.90;96.60;;;;;;5048006;28;20135;-78
2023/02/02 04:23:39;;;;;;;125.65;120.55;;;10.90;96.60;;;;;;5030159;28;20504;-78
2023/02/02 04:26:05;;;;;;;130.38;125.07;;;10.90;96.60;;;;;;5046888;28;20104;-78
2023/02/02 04:28:31;;;;;;;131.68;126.28;;;10.90;96.60;;;;;;5046810;28;20036;-78
2023/02/02 04:30:57;;;;;;;128.98;123.68;;;10.90;96.60;;;;;;5046693;28;20033;-78
2023/02/02 04:33:24;;;;;;;132.88;127.47;;;10.90;96.60;;;;;;5046490;28;20083;-78
2023/02/02 04:35:50;;;;;;;132.02;126.63;;;10.80;96.50;;;;;;5046693;28;20036;-78
2023/02/02 04:38:16;;;;;;;129.30;124.05;;;10.80;96.60;;;;;;5030544;28;20033;-78
2023/02/02 04:40:44;;;;;;;133.35;127.95;;;10.90;96.60;;;;;;5046573;28;20028;-78
2023/02/02 04:43:10;;;;;;;132.63;127.22;;;10.80;96.60;;;;;;5047831;28;20029;-78
2023/02/02 04:45:36;;;;;;;130.65;125.35;;;10.80;96.60;;;;;;5046626;28;20393;-78
2023/02/02 04:48:02;;;;;;;132.05;126.65;;;10.90;96.60;;;;;;5013592;28;20033;-78
2023/02/02 04:50:29;;;;;;;131.30;126.00;;;10.80;96.60;;;;;;5045764;28;20025;-78
2023/02/02 04:52:55;;;;;;;125.32;120.28;;;10.90;96.60;;;;;;5046523;28;20029;-78
2023/02/02 04:55:20;;;;;;;130.80;125.50;;;10.80;96.60;;;;;;5046413;28;20040;-78
2023/02/02 04:57:46;;;;;;;127.50;122.30;;;10.80;96.60;;;;;;5029383;28;20044;-78
2023/02/02 05:00:12;;;;;;;127.38;122.18;;;10.80;96.60;;;;;;5046551;28;20065;-78
2023/02/02 05:02:39;;;;;;;129.85;124.55;;;10.80;96.60;;;;;;5029743;28;20041;-78
2023/02/02 05:05:06;;;;;;;126.25;121.15;;;10.80;96.60;;;;;;5046034;28;20033;-78
2023/02/02 05:07:32;;;;;;;121.93;117.03;;;10.80;96.60;;;;;;5047299;28;20034;-78
2023/02/02 05:09:58;;;;;;;116.82;112.13;;;10.80;96.60;;;;;;5029771;28;20086;-78
2023/02/02 05:12:23;;;;;;;112.80;108.28;;;10.80;96.60;;;;;;5046299;28;20037;-78
2023/02/02 05:14:49;;;;;;;105.32;101.13;;;10.80;96.70;;;;;;5029763;28;20067;-78
2023/02/02 05:17:15;;;;;;;108.30;104.00;;;10.80;96.70;;;;;;5029589;28;20033;-78
2023/02/02 05:19:41;;;;;;;107.90;103.68;;;10.80;96.70;;;;;;5029548;28;20114;-78
2023/02/02 05:22:07;;;;;;;106.32;102.15;;;10.80;96.70;;;;;;5029585;28;20037;-78
2023/02/02 05:24:32;;;;;;;105.93;101.82;;;10.80;96.70;;;;;;5029611;28;20518;-78
2023/02/02 05:26:59;;;;;;;103.32;99.28;;;10.80;96.70;;;;;;5029580;28;20499;-78
2023/02/02 05:29:29;;;;;;;96.65;92.85;;;10.80;96.70;;;;;;5029658;28;20025;-78
2023/02/02 05:31:56;;;;;;;96.15;92.35;;;10.80;96.70;;;;;;5047621;28;20025;-78
2023/02/02 05:34:22;;;;;;;98.63;94.78;;;10.90;96.70;;;;;;5029478;28;20033;-78
2023/02/02 05:36:48;;;;;;;100.70;96.78;;;10.90;96.70;;;;;;5046087;28;20036;-78
2023/02/02 05:39:13;;;;;;;99.75;95.85;;;10.90;96.70;;;;;;5029322;28;20064;-78
2023/02/02 05:41:39;;;;;;;109.75;105.45;;;10.90;96.70;;;;;;5047249;28;20083;-78
2023/02/02 05:44:06;;;;;;;120.88;116.05;;;10.90;96.60;;;;;;5045864;28;20128;-78
2023/02/02 05:46:31;;;;;;;;;;;10.90;96.60;;;;;;5046017;28;20064;-78
2023/02/02 05:49:03;;;;;;;132.75;127.28;;;10.90;96.50;;;;;;5047026;28;19912;-78
2023/02/02 05:51:33;;;;;;;150.32;144.13;;;10.80;96.50;;;;;;5030039;28;20029;-78
2023/02/02 05:53:59;;;;;;;150.43;144.23;;;10.70;96.40;;;;;;5045641;28;20116;-78
2023/02/02 05:56:24;;;;;;;148.60;142.50;;;10.70;96.50;;;;;;5046302;28;20478;-81
2023/02/02 05:58:50;;;;;;;147.77;141.68;;;10.60;96.50;;;;;;5029989;28;20030;-81
2023/02/02 06:01:17;;;;;;;148.57;142.48;;;10.60;96.60;;;;;;5047033;28;20115;-81
2023/02/02 06:03:43;;;;;;;141.75;135.95;;;10.60;96.60;;;;;;5050245;28;20094;-81
2023/02/02 06:06:09;;;;;;;147.55;141.55;;;10.60;96.60;;;;;;5050529;28;20033;-81
2023/02/02 06:08:35;;;;;;;143.32;137.45;;;10.60;96.60;;;;;;5050532;28;20028;-81
2023/02/02 06:11:15;;;;;;;139.77;134.07;;;10.60;96.60;;;;;;5020314;28;20127;-81
2023/02/02 06:13:41;;;;;;;139.70;134.00;;;10.60;96.60;;;;;;5050229;28;20090;-81
2023/02/02 06:16:08;;;;;;;134.45;129.05;;;10.60;96.60;;;;;;5051463;28;20445;-81
2023/02/02 06:18:34;;;;;;;;;;;10.60;96.60;;;;;;5034449;28;20056;-81
2023/02/02 06:21:01;;;;;;;129.27;124.07;;;10.60;96.70;;;;;;5051494;28;19953;-81
2023/02/02 06:23:27;;;;;;;135.07;129.63;;;10.60;96.60;;;;;;5051615;28;20481;-81
2023/02/02 06:25:53;;;;;;;133.23;127.82;;;10.60;96.60;;;;;;5050414;28;20037;-81
2023/02/02 06:28:19;;;;;;;130.55;125.30;;;10.60;96.70;;;;;;5033751;28;20030;-81
2023/02/02 06:30:45;;;;;;;136.05;130.55;;;10.60;96.60;;;;;;5050486;28;20108;-81
2023/02/02 06:33:11;;;;;;;136.27;130.77;;;10.60;96.60;;;;;;5051460;28;20033;-81
2023/02/02 06:35:36;;;;;;;138.82;133.23;;;10.50;96.60;;;;;;5033541;28;20032;-81
2023/02/02 06:38:02;;;;;;;137.55;131.98;;;10.40;96.60;;;;;;5016950;28;20037;-81
2023/02/02 06:40:28;;;;;;;138.07;132.48;;;10.40;96.60;;;;;;5049884;28;20108;-81
2023/02/02 06:42:58;;;;;;;138.07;132.48;;;10.30;96.80;;;;;;5033460;28;20477;-81
2023/02/02 06:45:25;;;;;;;137.95;132.35;;;10.20;96.60;;;;;;5049876;28;20025;-79
2023/02/02 06:47:51;;;;;;;134.82;129.32;;;10.20;96.60;;;;;;5050405;28;20029;-82
2023/02/02 06:50:17;;;;;;;;;;;10.10;96.70;;;;;;5033895;28;20025;-81
2023/02/02 06:52:50;;;;;;;134.82;129.32;;;10.20;96.70;;;;;;5049961;28;19906;-81
2023/02/02 06:55:16;;;;;;;130.57;125.28;;;10.20;96.70;;;;;;5050457;28;20017;-81
2023/02/02 06:57:42;;;;;;;;;;;10.20;96.70;;;;;;5033311;28;20064;-81
2023/02/02 07:00:09;;;;;;;129.85;124.55;;;10.20;96.70;;;;;;5049842;28;19956;-81
2023/02/02 07:02:34;;;;;;;130.27;124.90;;;10.30;96.60;;;;;;5049248;28;20054;-81
2023/02/02 07:05:00;;;;;;;130.07;124.70;;;10.30;96.60;;;;;;5032882;28;20100;-81
2023/02/02 07:07:27;;;;;;;130.40;125.05;;;10.20;96.60;;;;;;5017031;28;20049;-80
2023/02/02 07:09:52;;;;;;;129.63;124.32;;;10.20;96.70;;;;;;5035082;28;20029;-81
2023/02/02 07:12:18;;;;;;;136.45;130.85;;;10.20;96.60;;;;;;5032661;28;20091;-82
2023/02/02 07:14:44;;;;;;;136.65;131.02;;;10.20;96.50;;;;;;5032333;28;20036;-81
2023/02/02 07:17:10;;;;;;;127.50;122.25;;;10.10;96.60;;;;;;5050597;28;20363;-81
2023/02/02 07:19:36;;;;;;;129.65;124.35;;;10.20;96.70;;;;;;5032894;28;20106;-80
2023/02/02 07:22:02;;;;;;;125.45;120.32;;;10.20;96.70;;;;;;5050568;28;20041;-81
2023/02/02 07:24:28;;;;;;;119.80;114.90;;;10.20;96.70;;;;;;5050609;28;20026;-81
2023/02/02 07:26:54;;;;;;;119.75;114.85;;;10.20;96.70;;;;;;5050137;28;20029;-82
2023/02/02 07:29:19;;;;;;;122.60;117.60;;;10.30;96.70;;;;;;5033527;28;20477;-81
2023/02/02 07:31:45;;;;;;;119.72;114.82;;;10.20;96.70;;;;;;5049692;28;20104;-81
2023/02/02 07:34:11;;;;;;;123.88;118.80;;;10.30;96.70;;;;;;5049998;28;20122;-81
2023/02/02 07:36:37;;;;;;;127.65;122.35;;;10.30;96.70;;;;;;5047939;28;20391;-80
2023/02/02 07:39:03;;;;;;;;;;;10.30;96.60;;;;;;5015287;28;20086;-80
2023/02/02 07:41:29;;;;;;;136.80;131.02;;;10.30;96.60;;;;;;5048708;28;19912;-81
2023/02/02 07:43:55;;;;;;;;;;;10.20;96.50;;;;;;5048228;28;20385;-81
2023/02/02 07:46:21;;;;;;;137.95;132.15;;;10.20;96.50;;;;;;5052576;28;19904;-81
2023/02/02 07:48:47;;;;;;;137.95;132.15;;;10.20;96.50;;;;;;5049443;28;20541;-81
2023/02/02 07:51:15;;;;;;;138.50;132.65;;;10.10;96.50;;;;;;5030880;28;20029;-81
2023/02/02 07:53:45;;;;;;;136.32;130.63;;;10.10;96.60;;;;;;5047517;28;20024;-80
2023/02/02 07:56:14;;;;;;;134.48;128.77;;;10.10;96.60;;;;;;5047163;28;20029;-81
2023/02/02 07:58:40;;;;;;;135.02;129.40;;;10.10;96.60;;;;;;5048858;28;20488;-80
2023/02/02 08:01:08;;;;;;;130.93;125.47;;;10.20;96.60;;;;;;5046757;28;20048;-80
2023/02/02 08:03:34;;;;;;;131.25;125.75;;;10.10;96.60;;;;;;5048269;28;20033;-80
2023/02/02 08:06:07;;;;;;;133.13;127.60;;;10.20;96.60;;;;;;5047103;28;20075;-80
2023/02/02 08:08:33;;;;;;;128.90;123.50;;;10.20;96.60;;;;;;5046822;28;20048;-79
2023/02/02 08:10:58;;;;;;;132.32;126.82;;;10.20;96.60;;;;;;5047130;28;20037;-80
2023/02/02 08:13:24;;;;;;;133.82;128.30;;;10.20;96.60;;;;;;5048342;28;20043;-80
2023/02/02 08:15:49;;;;;;;132.38;126.88;;;10.20;96.60;;;;;;5047231;28;20071;-80
2023/02/02 08:18:15;;;;;;;126.78;121.57;;;10.30;96.60;;;;;;5046870;28;20397;-81
2023/02/02 08:20:41;;;;;;;128.90;123.60;;;10.30;96.60;;;;;;5052294;28;20030;-79
2023/02/02 08:23:14;;;;;;;128.57;123.28;;;10.30;96.70;;;;;;5046439;28;20039;-81
2023/02/02 08:25:40;;;;;;;127.30;122.10;;;10.30;96.70;;;;;;5046207;28;20013;-79
2023/02/02 08:28:06;;;;;;;131.35;125.95;;;10.30;96.70;;;;;;5048292;28;20391;-79
2023/02/02 08:30:33;;;;;;;122.60;117.50;;;10.30;96.70;;;;;;5046786;28;20033;-79
2023/02/02 08:32:59;;;;;;;123.32;118.20;;;10.30;96.70;;;;;;5029888;28;20090;-79
2023/02/02 08:35:25;;;;;;;117.35;112.45;;;10.40;96.70;;;;;;5046730;28;20116;-79
2023/02/02 08:37:51;;;;;;;118.60;113.63;;;10.40;96.70;;;;;;5029961;28;20045;-80
2023/02/02 08:40:17;;;;;;;114.60;109.80;;;10.40;96.70;;;;;;5046293;28;20028;-82
2023/02/02 08:42:45;;;;;;;114.57;109.78;;;10.40;96.70;;;;;;5046644;28;20493;-80
2023/02/02 08:45:10;;;;;;;112.90;108.20;;;10.50;96.70;;;;;;5030009;28;20036;-80
2023/02/02 08:47:36;;;;;;;112.22;107.55;;;10.50;96.70;;;;;;5047767;28;20017;-79
2023/02/02 08:50:02;;;;;;;111.03;106.35;;;10.50;96.70;;;;;;5045921;28;20393;-80
2023/02/02 08:52:27;;;;;;;109.38;104.80;;;10.60;96.70;;;;;;5045645;28;20090;-80
2023/02/02 08:54:53;;;;;;;105.30;100.90;;;10.60;96.70;;;;;;5013095;28;20284;-78
2023/02/02 08:57:19;;;;;;;103.00;98.70;;;10.60;96.70;;;;;;5029270;28;20077;-79
2023/02/02 08:59:44;;;;;;;102.43;98.13;;;10.70;96.70;;;;;;5029226;28;20441;-80
2023/02/02 09:02:12;;;;;;;103.15;98.85;;;10.70;96.70;;;;;;5028822;28;20039;-79
2023/02/02 09:04:39;;;;;;;101.18;96.97;;;10.70;96.70;;;;;;5045648;28;20094;-78
2023/02/02 09:07:05;;;;;;;97.57;93.47;;;10.70;96.80;;;;;;5029307;28;20297;-79
2023/02/02 09:09:31;;;;;;;94.30;90.40;;;10.70;96.70;;;;;;5046197;28;20030;-78
2023/02/02 09:11:57;;;;;;;;;;;10.70;96.70;;;;;;5020840;28;20085;-78
2023/02/02 09:14:22;;;;;;;87.68;84.07;;;10.70;96.70;;;;;;5018762;28;19919;-78
2023/02/02 09:16:48;;;;;;;87.03;83.43;;;10.70;96.70;;;;;;5037747;28;20029;-79
2023/02/02 09:19:14;;;;;;;85.72;82.22;;;10.70;96.70;;;;;;5037595;28;20092;-79
2023/02/02 09:21:40;;;;;;;77.97;74.78;;;10.80;96.70;;;;;;5036760;28;20234;-78
2023/02/02 09:24:11;;;;;;;78.60;75.40;;;10.80;97.00;;;;;;5035358;28;20035;-78
2023/02/02 09:26:39;;;;;;;75.95;72.85;;;10.90;96.80;;;;;;5035769;28;20498;-78
2023/02/02 09:29:07;;;;;;;74.65;71.55;;;11.00;96.80;;;;;;5036960;28;20020;-79
2023/02/02 09:31:35;;;;;;;75.03;71.97;;;11.00;96.80;;;;;;5032643;28;20109;-79
2023/02/02 09:34:02;;;;;;;77.55;74.35;;;11.00;96.70;;;;;;5027264;28;20378;-79
2023/02/02 09:36:28;;;;;;;76.53;73.43;;;11.10;96.80;;;;;;5035733;28;20013;-80
2023/02/02 09:38:54;;;;;;;76.05;72.95;;;11.10;96.80;;;;;;5040505;28;20026;-79
2023/02/02 09:41:41;;;;;;;77.20;74.10;;;11.10;96.80;;;;;;5040428;28;20029;-80
2023/02/02 09:44:34;;;;;;;83.28;79.95;;;11.10;96.70;;;;;;5040892;28;20332;-80
2023/02/02 09:46:59;;;;;;;87.63;84.22;;;11.10;96.70;;;;;;5034908;28;20017;-80
2023/02/02 09:49:31;;;;;;;80.68;77.40;;;11.20;96.70;;;;;;5041290;28;20079;-80
2023/02/02 09:52:07;;;;;;;78.97;75.78;;;11.20;96.80;;;;;;5038737;28;20047;-80
2023/02/02 09:54:40;;;;;;;79.23;76.03;;;11.20;96.80;;;;;;5036007;28;20028;-80
2023/02/02 09:57:16;;;;;;;72.93;70.03;;;11.20;96.70;;;;;;5040141;28;20321;-80
2023/02/02 09:59:43;;;;;;;78.93;75.82;;;11.20;96.70;;;;;;5041274;28;20039;-80
2023/02/02 10:02:21;;;;;;;78.45;75.28;;;11.20;96.70;;;;;;5040975;28;20082;-80
2023/02/02 10:04:51;;;;;;;82.63;79.38;;;11.20;96.70;;;;;;5039529;28;20017;-78
2023/02/02 10:07:25;;;;;;;80.13;76.93;;;11.30;96.80;;;;;;5037089;28;20095;-82
2023/02/02 10:09:59;;;;;;;79.20;76.00;;;11.30;96.70;;;;;;5035410;28;20461;-83
2023/02/02 10:12:24;;;;;;;85.75;82.25;;;11.30;96.70;;;;;;5043010;28;20029;-83
2023/02/02 10:14:57;;;;;;;85.80;82.32;;;11.30;96.70;;;;;;5050454;28;20040;-83
2023/02/02 10:18:04;;;;;;;83.93;80.53;;;11.30;96.70;;;;;;5033360;28;20041;-82
2023/02/02 10:20:50;;;;;;;85.82;82.32;;;11.30;96.70;;;;;;5039734;28;20481;-83
2023/02/02 10:23:40;;;;;;;87.35;83.85;;;11.40;96.80;;;;;;5039048;28;20474;-82
2023/02/02 10:26:22;;;;;;;92.90;89.13;;;11.30;96.70;;;;;;5046355;28;20091;-85
2023/02/02 10:29:13;;;;;;;99.78;95.68;;;11.40;96.70;;;;;;5041652;28;20036;-84
2023/02/02 10:31:45;;;;;;;117.35;112.45;;;11.30;96.70;;;;;;5052087;28;20033;-85
2023/02/02 10:34:41;;;;;;;127.85;122.45;;;11.30;96.60;;;;;;5043723;28;20020;-85
2023/02/02 10:37:27;;;;;;;134.35;128.65;;;11.20;96.60;;;;;;5045798;28;20021;-84
2023/02/02 10:40:17;;;;;;;132.38;126.68;;;11.20;96.70;;;;;;5047809;28;20021;-84
2023/02/02 10:46:03;;;;;;;132.27;126.68;;;11.10;96.70;;;;;;5053220;28;20060;-86
2023/02/02 10:48:34;;;;;;;129.70;124.20;;;11.20;96.70;;;;;;5043620;28;20034;-84
2023/02/02 10:51:12;;;;;;;132.15;126.65;;;11.20;96.70;;;;;;5032720;28;20062;-84
2023/02/02 10:53:39;;;;;;;126.80;121.50;;;11.30;96.70;;;;;;5047871;28;20124;-85
2023/02/02 10:56:10;;;;;;;;;;;11.30;96.70;;;;;;5032722;28;20592;-85
2023/02/02 10:59:11;;;;;;;116.13;111.32;;;11.30;96.70;;;;;;5037219;28;19917;-84
2023/02/02 11:01:37;;;;;;;104.65;100.35;;;11.40;96.70;;;;;;5045780;28;20044;-79
2023/02/02 11:06:49;;;;;;;90.40;86.70;;;11.60;96.80;;;;;;5018504;28;20048;-78
2023/02/02 11:09:32;;;;;;;80.82;77.50;;;11.70;96.90;;;;;;5030595;28;20025;-80
2023/02/02 11:12:27;;;;;;;69.60;66.70;;;11.90;97.00;;;;;;5031758;28;20025;-77
2023/02/02 11:15:09;;;;;;;68.35;65.55;;;12.10;97.10;;;;;;5031742;28;20021;-80
2023/02/02 11:17:35;;;;;;;64.53;61.92;;;12.30;97.10;;;;;;5031380;28;20474;-81
2023/02/02 11:20:20;;;;;;;60.83;58.42;;;12.50;97.10;;;;;;5030354;28;20037;-80
2023/02/02 11:22:46;;;;;;;59.05;56.75;;;12.60;96.90;;;;;;5030905;28;20094;-80
2023/02/02 11:25:34;;;;;;;56.55;54.35;;;12.70;96.80;;;;;;5034209;28;20478;-79
2023/02/02 11:28:12;;;;;;;58.78;56.47;;;12.70;96.80;;;;;;5045677;28;20059;-79
2023/02/02 11:30:39;;;;;;;56.95;54.75;;;12.60;96.80;;;;;;5049613;28;20116;-80
2023/02/02 11:33:32;;;;;;;58.35;56.05;;;12.60;96.80;;;;;;5049252;28;20547;-81
2023/02/02 11:36:02;;;;;;;56.53;54.33;;;12.50;96.80;;;;;;5046991;28;20045;-80
2023/02/02 11:38:29;;;;;;;57.20;55.00;;;12.60;96.80;;;;;;5049563;28;20453;-78
2023/02/02 11:41:02;;;;;;;53.65;51.55;;;12.50;96.80;;;;;;5049964;28;20118;-79
2023/02/02 11:43:30;;;;;;;53.70;51.60;;;12.50;96.80;;;;;;5049697;28;20033;-80
2023/02/02 11:46:04;;;;;;;48.70;46.80;;;12.50;96.80;;;;;;5049789;28;20485;-80
2023/02/02 11:48:36;;;;;;;46.78;44.97;;;12.50;96.80;;;;;;5049430;28;20029;-79
2023/02/02 11:51:04;;;;;;;47.35;45.55;;;12.50;96.80;;;;;;5049572;28;20028;-77
2023/02/02 11:53:30;;;;;;;46.17;44.38;;;12.50;96.80;;;;;;5032901;28;20138;-75
2023/02/02 11:55:59;;;;;;;48.58;46.67;;;12.50;96.90;;;;;;5051350;28;20474;-80
2023/02/02 11:58:29;;;;;;;52.40;50.40;;;12.50;96.90;;;;;;5050408;28;20536;-78
2023/02/02 12:00:58;;;;;;;53.25;51.15;;;12.50;96.80;;;;;;5050165;28;20477;-78
2023/02/02 12:03:28;;;;;;;45.95;44.15;;;12.50;96.80;;;;;;5049762;28;20052;-85
2023/02/02 12:05:55;;;;;;;45.55;43.85;;;12.40;96.80;;;;;;5050189;28;20025;-79
2023/02/02 12:08:22;;;;;;;46.70;44.90;;;12.40;96.90;;;;;;5050420;28;20052;-81
2023/02/02 12:11:01;;;;;;;42.60;41.00;;;12.40;96.90;;;;;;5048813;28;20044;-80
2023/02/02 12:14:10;;;;;;;34.75;33.45;;;12.50;96.90;;;;;;5048841;28;20492;-76
2023/02/02 12:16:54;;;;;;;30.17;28.98;;;12.50;96.80;;;;;;5031057;28;20069;-78
2023/02/02 12:19:22;;;;;;;27.23;26.13;;;12.40;96.80;;;;;;5049013;28;20037;-77
2023/02/02 12:22:09;;;;;;;26.17;25.17;;;12.40;96.90;;;;;;5049801;28;20083;-79
2023/02/02 12:24:40;;;;;;;;;;;12.40;96.90;;;;;;5050221;28;20017;-80
2023/02/02 12:27:35;;;;;;;27.55;26.45;;;12.40;96.90;;;;;;5049811;28;19905;-79
2023/02/02 12:30:25;;;;;;;29.90;28.70;;;12.30;96.80;;;;;;5049899;28;20024;-77
2023/02/02 12:33:03;;;;;;;26.48;25.48;;;12.30;96.80;;;;;;5048829;28;20479;-81
2023/02/02 12:35:58;;;;;;;28.75;27.65;;;12.30;96.80;;;;;;5048795;28;20033;-82
2023/02/02 12:38:46;;;;;;;26.85;25.85;;;12.30;96.90;;;;;;5048027;28;20018;-77
2023/02/02 12:41:23;;;;;;;27.40;26.30;;;12.30;96.90;;;;;;5049254;28;20028;-77
2023/02/02 12:44:27;;;;;;;25.42;24.42;;;12.40;96.90;;;;;;5046959;28;20033;-79
2023/02/02 12:47:12;;;;;;;27.65;26.55;;;12.40;96.90;;;;;;5046143;28;20075;-79